<?xml version="1.0" encoding="UTF-8" standalone="no" ?>
<gpx xmlns="http://www.topografix.com/GPX/1/1" xmlns:xsi="http://www.w3.org/2001/XMLSchema-instance" xsi:schemaLocation="http://www.topografix.com/GPX/1/1 http://www.topografix.com/GPX/1/1/gpx.xsd" version="1.1" creator="VisuGPX - https://www.visugpx.com">
  <metadata>
    <name>Parcours tarine 2013</name>
    <desc><![CDATA[Parcours du cross de la tarine]]></desc>
  </metadata>
  <trk>
    <name><![CDATA[Untitled]]></name>
    <trkseg>
      <trkpt lat="45.55136" lon="6.6676">
        <ele>737.20001220703</ele>
        <time>2013-11-01T15:23:31.000Z</time>
      </trkpt>
      <trkpt lat="45.55131" lon="6.66759">
        <ele>737.40002441406</ele>
        <time>2013-11-01T15:23:35.000Z</time>
      </trkpt>
      <trkpt lat="45.55129" lon="6.66758">
        <ele>737.59997558594</ele>
        <time>2013-11-01T15:23:36.000Z</time>
      </trkpt>
      <trkpt lat="45.55125" lon="6.66756">
        <ele>737.79998779297</ele>
        <time>2013-11-01T15:23:40.000Z</time>
      </trkpt>
      <trkpt lat="45.55121" lon="6.66754">
        <ele>738</ele>
        <time>2013-11-01T15:23:42.000Z</time>
      </trkpt>
      <trkpt lat="45.55117" lon="6.66751">
        <ele>738.20001220703</ele>
        <time>2013-11-01T15:23:45.000Z</time>
      </trkpt>
      <trkpt lat="45.55113" lon="6.66748">
        <ele>738.20001220703</ele>
        <time>2013-11-01T15:23:48.000Z</time>
      </trkpt>
      <trkpt lat="45.55109" lon="6.66745">
        <ele>738.40002441406</ele>
        <time>2013-11-01T15:23:51.000Z</time>
      </trkpt>
      <trkpt lat="45.55106" lon="6.66741">
        <ele>738.20001220703</ele>
        <time>2013-11-01T15:23:54.000Z</time>
      </trkpt>
      <trkpt lat="45.55105" lon="6.66739">
        <ele>738</ele>
        <time>2013-11-01T15:23:55.000Z</time>
      </trkpt>
      <trkpt lat="45.55105" lon="6.66729">
        <ele>736.79998779297</ele>
        <time>2013-11-01T15:23:59.000Z</time>
      </trkpt>
      <trkpt lat="45.55106" lon="6.66721">
        <ele>735.79998779297</ele>
        <time>2013-11-01T15:24:02.000Z</time>
      </trkpt>
      <trkpt lat="45.55109" lon="6.66715">
        <ele>734.79998779297</ele>
        <time>2013-11-01T15:24:05.000Z</time>
      </trkpt>
      <trkpt lat="45.55112" lon="6.6671">
        <ele>733.79998779297</ele>
        <time>2013-11-01T15:24:08.000Z</time>
      </trkpt>
      <trkpt lat="45.55113" lon="6.66709">
        <ele>733.40002441406</ele>
        <time>2013-11-01T15:24:09.000Z</time>
      </trkpt>
      <trkpt lat="45.55119" lon="6.66709">
        <ele>733</ele>
        <time>2013-11-01T15:24:12.000Z</time>
      </trkpt>
      <trkpt lat="45.55124" lon="6.66711">
        <ele>732.59997558594</ele>
        <time>2013-11-01T15:24:15.000Z</time>
      </trkpt>
      <trkpt lat="45.55129" lon="6.66713">
        <ele>732.40002441406</ele>
        <time>2013-11-01T15:24:18.000Z</time>
      </trkpt>
      <trkpt lat="45.55134" lon="6.66715">
        <ele>732</ele>
        <time>2013-11-01T15:24:21.000Z</time>
      </trkpt>
      <trkpt lat="45.5514" lon="6.66718">
        <ele>731.79998779297</ele>
        <time>2013-11-01T15:24:25.000Z</time>
      </trkpt>
      <trkpt lat="45.55145" lon="6.6672">
        <ele>731.40002441406</ele>
        <time>2013-11-01T15:24:28.000Z</time>
      </trkpt>
      <trkpt lat="45.55149" lon="6.66722">
        <ele>731.20001220703</ele>
        <time>2013-11-01T15:24:31.000Z</time>
      </trkpt>
      <trkpt lat="45.55153" lon="6.66724">
        <ele>731</ele>
        <time>2013-11-01T15:24:34.000Z</time>
      </trkpt>
      <trkpt lat="45.55157" lon="6.66727">
        <ele>730.79998779297</ele>
        <time>2013-11-01T15:24:37.000Z</time>
      </trkpt>
      <trkpt lat="45.5516" lon="6.66731">
        <ele>731</ele>
        <time>2013-11-01T15:24:40.000Z</time>
      </trkpt>
      <trkpt lat="45.55162" lon="6.66737">
        <ele>731.40002441406</ele>
        <time>2013-11-01T15:24:43.000Z</time>
      </trkpt>
      <trkpt lat="45.55163" lon="6.66743">
        <ele>731.79998779297</ele>
        <time>2013-11-01T15:24:46.000Z</time>
      </trkpt>
      <trkpt lat="45.55164" lon="6.66748">
        <ele>732.20001220703</ele>
        <time>2013-11-01T15:24:49.000Z</time>
      </trkpt>
      <trkpt lat="45.55165" lon="6.6675">
        <ele>732.20001220703</ele>
        <time>2013-11-01T15:24:50.000Z</time>
      </trkpt>
      <trkpt lat="45.55169" lon="6.66755">
        <ele>732.59997558594</ele>
        <time>2013-11-01T15:24:53.000Z</time>
      </trkpt>
      <trkpt lat="45.55172" lon="6.66761">
        <ele>733</ele>
        <time>2013-11-01T15:24:56.000Z</time>
      </trkpt>
      <trkpt lat="45.55174" lon="6.66766">
        <ele>733.59997558594</ele>
        <time>2013-11-01T15:24:59.000Z</time>
      </trkpt>
      <trkpt lat="45.55177" lon="6.66772">
        <ele>734</ele>
        <time>2013-11-01T15:25:02.000Z</time>
      </trkpt>
      <trkpt lat="45.5518" lon="6.66778">
        <ele>734.59997558594</ele>
        <time>2013-11-01T15:25:05.000Z</time>
      </trkpt>
      <trkpt lat="45.55182" lon="6.66783">
        <ele>735</ele>
        <time>2013-11-01T15:25:08.000Z</time>
      </trkpt>
      <trkpt lat="45.55185" lon="6.66788">
        <ele>735.59997558594</ele>
        <time>2013-11-01T15:25:11.000Z</time>
      </trkpt>
      <trkpt lat="45.55188" lon="6.66793">
        <ele>736</ele>
        <time>2013-11-01T15:25:14.000Z</time>
      </trkpt>
      <trkpt lat="45.55191" lon="6.66799">
        <ele>736.40002441406</ele>
        <time>2013-11-01T15:25:17.000Z</time>
      </trkpt>
      <trkpt lat="45.55193" lon="6.66804">
        <ele>736.79998779297</ele>
        <time>2013-11-01T15:25:20.000Z</time>
      </trkpt>
      <trkpt lat="45.55195" lon="6.66809">
        <ele>737.40002441406</ele>
        <time>2013-11-01T15:25:23.000Z</time>
      </trkpt>
      <trkpt lat="45.55197" lon="6.66814">
        <ele>737.79998779297</ele>
        <time>2013-11-01T15:25:26.000Z</time>
      </trkpt>
      <trkpt lat="45.55199" lon="6.6682">
        <ele>738.40002441406</ele>
        <time>2013-11-01T15:25:29.000Z</time>
      </trkpt>
      <trkpt lat="45.55201" lon="6.66825">
        <ele>739.20001220703</ele>
        <time>2013-11-01T15:25:32.000Z</time>
      </trkpt>
      <trkpt lat="45.55202" lon="6.66831">
        <ele>739.79998779297</ele>
        <time>2013-11-01T15:25:35.000Z</time>
      </trkpt>
      <trkpt lat="45.55204" lon="6.66836">
        <ele>740.20001220703</ele>
        <time>2013-11-01T15:25:38.000Z</time>
      </trkpt>
      <trkpt lat="45.55207" lon="6.6684">
        <ele>740.40002441406</ele>
        <time>2013-11-01T15:25:41.000Z</time>
      </trkpt>
      <trkpt lat="45.55209" lon="6.66842">
        <ele>740.40002441406</ele>
        <time>2013-11-01T15:25:43.000Z</time>
      </trkpt>
      <trkpt lat="45.55215" lon="6.66843">
        <ele>740</ele>
        <time>2013-11-01T15:25:47.000Z</time>
      </trkpt>
      <trkpt lat="45.55217" lon="6.66839">
        <ele>739.40002441406</ele>
        <time>2013-11-01T15:25:50.000Z</time>
      </trkpt>
      <trkpt lat="45.55217" lon="6.66836">
        <ele>739</ele>
        <time>2013-11-01T15:25:51.000Z</time>
      </trkpt>
      <trkpt lat="45.55217" lon="6.6683">
        <ele>738.40002441406</ele>
        <time>2013-11-01T15:25:54.000Z</time>
      </trkpt>
      <trkpt lat="45.55217" lon="6.66824">
        <ele>737.59997558594</ele>
        <time>2013-11-01T15:25:57.000Z</time>
      </trkpt>
      <trkpt lat="45.55217" lon="6.66817">
        <ele>736.59997558594</ele>
        <time>2013-11-01T15:26:00.000Z</time>
      </trkpt>
      <trkpt lat="45.55217" lon="6.66811">
        <ele>735.79998779297</ele>
        <time>2013-11-01T15:26:03.000Z</time>
      </trkpt>
      <trkpt lat="45.55216" lon="6.66804">
        <ele>735</ele>
        <time>2013-11-01T15:26:06.000Z</time>
      </trkpt>
      <trkpt lat="45.55215" lon="6.66797">
        <ele>734.20001220703</ele>
        <time>2013-11-01T15:26:09.000Z</time>
      </trkpt>
      <trkpt lat="45.55214" lon="6.6679">
        <ele>733.40002441406</ele>
        <time>2013-11-01T15:26:12.000Z</time>
      </trkpt>
      <trkpt lat="45.55212" lon="6.66784">
        <ele>732.59997558594</ele>
        <time>2013-11-01T15:26:15.000Z</time>
      </trkpt>
      <trkpt lat="45.55212" lon="6.66777">
        <ele>731.79998779297</ele>
        <time>2013-11-01T15:26:18.000Z</time>
      </trkpt>
      <trkpt lat="45.55212" lon="6.6677">
        <ele>730.79998779297</ele>
        <time>2013-11-01T15:26:21.000Z</time>
      </trkpt>
      <trkpt lat="45.55213" lon="6.66762">
        <ele>729.79998779297</ele>
        <time>2013-11-01T15:26:24.000Z</time>
      </trkpt>
      <trkpt lat="45.55214" lon="6.66755">
        <ele>728.79998779297</ele>
        <time>2013-11-01T15:26:27.000Z</time>
      </trkpt>
      <trkpt lat="45.55215" lon="6.66748">
        <ele>727.79998779297</ele>
        <time>2013-11-01T15:26:30.000Z</time>
      </trkpt>
      <trkpt lat="45.55216" lon="6.66741">
        <ele>727</ele>
        <time>2013-11-01T15:26:33.000Z</time>
      </trkpt>
      <trkpt lat="45.55216" lon="6.66734">
        <ele>726.20001220703</ele>
        <time>2013-11-01T15:26:36.000Z</time>
      </trkpt>
      <trkpt lat="45.55216" lon="6.66727">
        <ele>725.59997558594</ele>
        <time>2013-11-01T15:26:39.000Z</time>
      </trkpt>
      <trkpt lat="45.55215" lon="6.6672">
        <ele>725</ele>
        <time>2013-11-01T15:26:42.000Z</time>
      </trkpt>
      <trkpt lat="45.55214" lon="6.66713">
        <ele>724.59997558594</ele>
        <time>2013-11-01T15:26:45.000Z</time>
      </trkpt>
      <trkpt lat="45.55211" lon="6.66706">
        <ele>724</ele>
        <time>2013-11-01T15:26:48.000Z</time>
      </trkpt>
      <trkpt lat="45.55208" lon="6.66701">
        <ele>723.79998779297</ele>
        <time>2013-11-01T15:26:51.000Z</time>
      </trkpt>
      <trkpt lat="45.55205" lon="6.66696">
        <ele>723.59997558594</ele>
        <time>2013-11-01T15:26:54.000Z</time>
      </trkpt>
      <trkpt lat="45.55202" lon="6.66692">
        <ele>723.40002441406</ele>
        <time>2013-11-01T15:26:57.000Z</time>
      </trkpt>
      <trkpt lat="45.55199" lon="6.66688">
        <ele>723.40002441406</ele>
        <time>2013-11-01T15:27:00.000Z</time>
      </trkpt>
      <trkpt lat="45.55195" lon="6.66685">
        <ele>723.40002441406</ele>
        <time>2013-11-01T15:27:03.000Z</time>
      </trkpt>
      <trkpt lat="45.55192" lon="6.66681">
        <ele>723.20001220703</ele>
        <time>2013-11-01T15:27:06.000Z</time>
      </trkpt>
      <trkpt lat="45.5519" lon="6.66678">
        <ele>723.20001220703</ele>
        <time>2013-11-01T15:27:09.000Z</time>
      </trkpt>
      <trkpt lat="45.55186" lon="6.66671">
        <ele>722.79998779297</ele>
        <time>2013-11-01T15:27:13.000Z</time>
      </trkpt>
      <trkpt lat="45.55184" lon="6.66666">
        <ele>722.40002441406</ele>
        <time>2013-11-01T15:27:16.000Z</time>
      </trkpt>
      <trkpt lat="45.55182" lon="6.6666">
        <ele>722</ele>
        <time>2013-11-01T15:27:19.000Z</time>
      </trkpt>
      <trkpt lat="45.55179" lon="6.66655">
        <ele>721.79998779297</ele>
        <time>2013-11-01T15:27:22.000Z</time>
      </trkpt>
      <trkpt lat="45.55176" lon="6.66651">
        <ele>721.59997558594</ele>
        <time>2013-11-01T15:27:25.000Z</time>
      </trkpt>
      <trkpt lat="45.55173" lon="6.66647">
        <ele>721.40002441406</ele>
        <time>2013-11-01T15:27:28.000Z</time>
      </trkpt>
      <trkpt lat="45.5517" lon="6.66641">
        <ele>721</ele>
        <time>2013-11-01T15:28:37.000Z</time>
      </trkpt>
      <trkpt lat="45.5517" lon="6.66641">
        <ele>721</ele>
        <time>2013-11-01T15:28:38.000Z</time>
      </trkpt>
      <trkpt lat="45.55164" lon="6.66638">
        <ele>721.20001220703</ele>
        <time>2013-11-01T15:28:42.000Z</time>
      </trkpt>
      <trkpt lat="45.55159" lon="6.66635">
        <ele>721.20001220703</ele>
        <time>2013-11-01T15:28:45.000Z</time>
      </trkpt>
      <trkpt lat="45.55155" lon="6.66632">
        <ele>721.20001220703</ele>
        <time>2013-11-01T15:28:48.000Z</time>
      </trkpt>
      <trkpt lat="45.5515" lon="6.66629">
        <ele>721.40002441406</ele>
        <time>2013-11-01T15:28:51.000Z</time>
      </trkpt>
      <trkpt lat="45.55146" lon="6.66626">
        <ele>721.40002441406</ele>
        <time>2013-11-01T15:28:54.000Z</time>
      </trkpt>
      <trkpt lat="45.55142" lon="6.66624">
        <ele>721.40002441406</ele>
        <time>2013-11-01T15:28:57.000Z</time>
      </trkpt>
      <trkpt lat="45.55138" lon="6.66621">
        <ele>721.40002441406</ele>
        <time>2013-11-01T15:29:00.000Z</time>
      </trkpt>
      <trkpt lat="45.55133" lon="6.66616">
        <ele>721.40002441406</ele>
        <time>2013-11-01T15:29:03.000Z</time>
      </trkpt>
      <trkpt lat="45.5513" lon="6.66612">
        <ele>721.20001220703</ele>
        <time>2013-11-01T15:29:06.000Z</time>
      </trkpt>
      <trkpt lat="45.55126" lon="6.66608">
        <ele>721</ele>
        <time>2013-11-01T15:29:09.000Z</time>
      </trkpt>
      <trkpt lat="45.55125" lon="6.66605">
        <ele>720.79998779297</ele>
        <time>2013-11-01T15:29:11.000Z</time>
      </trkpt>
      <trkpt lat="45.55124" lon="6.66597">
        <ele>720</ele>
        <time>2013-11-01T15:29:15.000Z</time>
      </trkpt>
      <trkpt lat="45.55125" lon="6.6659">
        <ele>719.20001220703</ele>
        <time>2013-11-01T15:29:18.000Z</time>
      </trkpt>
      <trkpt lat="45.55126" lon="6.66585">
        <ele>718.59997558594</ele>
        <time>2013-11-01T15:29:21.000Z</time>
      </trkpt>
      <trkpt lat="45.55127" lon="6.66577">
        <ele>717.79998779297</ele>
        <time>2013-11-01T15:29:24.000Z</time>
      </trkpt>
      <trkpt lat="45.55126" lon="6.6657">
        <ele>717.40002441406</ele>
        <time>2013-11-01T15:29:27.000Z</time>
      </trkpt>
      <trkpt lat="45.55124" lon="6.66565">
        <ele>717.20001220703</ele>
        <time>2013-11-01T15:29:30.000Z</time>
      </trkpt>
      <trkpt lat="45.55121" lon="6.6656">
        <ele>717</ele>
        <time>2013-11-01T15:29:33.000Z</time>
      </trkpt>
      <trkpt lat="45.55117" lon="6.66556">
        <ele>717</ele>
        <time>2013-11-01T15:29:36.000Z</time>
      </trkpt>
      <trkpt lat="45.55116" lon="6.66557">
        <ele>717.20001220703</ele>
        <time>2013-11-01T15:29:37.000Z</time>
      </trkpt>
      <trkpt lat="45.55112" lon="6.66559">
        <ele>717.59997558594</ele>
        <time>2013-11-01T15:29:40.000Z</time>
      </trkpt>
      <trkpt lat="45.55108" lon="6.66561">
        <ele>718.20001220703</ele>
        <time>2013-11-01T15:29:43.000Z</time>
      </trkpt>
      <trkpt lat="45.55106" lon="6.66563">
        <ele>718.40002441406</ele>
        <time>2013-11-01T15:29:45.000Z</time>
      </trkpt>
      <trkpt lat="45.55102" lon="6.66562">
        <ele>718.79998779297</ele>
        <time>2013-11-01T15:29:49.000Z</time>
      </trkpt>
      <trkpt lat="45.55101" lon="6.66561">
        <ele>718.79998779297</ele>
        <time>2013-11-01T15:29:50.000Z</time>
      </trkpt>
      <trkpt lat="45.55098" lon="6.66557">
        <ele>718.59997558594</ele>
        <time>2013-11-01T15:29:53.000Z</time>
      </trkpt>
      <trkpt lat="45.55094" lon="6.66553">
        <ele>718.59997558594</ele>
        <time>2013-11-01T15:29:56.000Z</time>
      </trkpt>
      <trkpt lat="45.55091" lon="6.66549">
        <ele>718.59997558594</ele>
        <time>2013-11-01T15:29:59.000Z</time>
      </trkpt>
      <trkpt lat="45.55087" lon="6.66545">
        <ele>718.40002441406</ele>
        <time>2013-11-01T15:30:02.000Z</time>
      </trkpt>
      <trkpt lat="45.55084" lon="6.66541">
        <ele>718.40002441406</ele>
        <time>2013-11-01T15:30:05.000Z</time>
      </trkpt>
      <trkpt lat="45.5508" lon="6.66536">
        <ele>719.20001220703</ele>
        <time>2013-11-01T15:30:08.000Z</time>
      </trkpt>
      <trkpt lat="45.55079" lon="6.66536">
        <ele>719.59997558594</ele>
        <time>2013-11-01T15:30:09.000Z</time>
      </trkpt>
      <trkpt lat="45.55077" lon="6.66539">
        <ele>720.40002441406</ele>
        <time>2013-11-01T15:30:13.000Z</time>
      </trkpt>
      <trkpt lat="45.55078" lon="6.66541">
        <ele>720</ele>
        <time>2013-11-01T15:30:15.000Z</time>
      </trkpt>
      <trkpt lat="45.55082" lon="6.66547">
        <ele>719.20001220703</ele>
        <time>2013-11-01T15:30:19.000Z</time>
      </trkpt>
      <trkpt lat="45.55086" lon="6.66551">
        <ele>719.20001220703</ele>
        <time>2013-11-01T15:30:22.000Z</time>
      </trkpt>
      <trkpt lat="45.55089" lon="6.66555">
        <ele>719.20001220703</ele>
        <time>2013-11-01T15:30:25.000Z</time>
      </trkpt>
      <trkpt lat="45.55091" lon="6.6656">
        <ele>719.40002441406</ele>
        <time>2013-11-01T15:30:28.000Z</time>
      </trkpt>
      <trkpt lat="45.55094" lon="6.66563">
        <ele>719.40002441406</ele>
        <time>2013-11-01T15:30:31.000Z</time>
      </trkpt>
      <trkpt lat="45.55097" lon="6.66567">
        <ele>719.59997558594</ele>
        <time>2013-11-01T15:30:34.000Z</time>
      </trkpt>
      <trkpt lat="45.55101" lon="6.66572">
        <ele>719.59997558594</ele>
        <time>2013-11-01T15:30:37.000Z</time>
      </trkpt>
      <trkpt lat="45.55104" lon="6.66577">
        <ele>719.79998779297</ele>
        <time>2013-11-01T15:30:40.000Z</time>
      </trkpt>
      <trkpt lat="45.55107" lon="6.66581">
        <ele>719.79998779297</ele>
        <time>2013-11-01T15:30:43.000Z</time>
      </trkpt>
      <trkpt lat="45.5511" lon="6.66586">
        <ele>720</ele>
        <time>2013-11-01T15:30:46.000Z</time>
      </trkpt>
      <trkpt lat="45.5511" lon="6.66587">
        <ele>720.20001220703</ele>
        <time>2013-11-01T15:30:47.000Z</time>
      </trkpt>
      <trkpt lat="45.55108" lon="6.66595">
        <ele>721.20001220703</ele>
        <time>2013-11-01T15:30:51.000Z</time>
      </trkpt>
      <trkpt lat="45.55106" lon="6.666">
        <ele>722</ele>
        <time>2013-11-01T15:30:54.000Z</time>
      </trkpt>
      <trkpt lat="45.55105" lon="6.66603">
        <ele>722.20001220703</ele>
        <time>2013-11-01T15:30:55.000Z</time>
      </trkpt>
      <trkpt lat="45.55105" lon="6.66611">
        <ele>723.20001220703</ele>
        <time>2013-11-01T15:30:59.000Z</time>
      </trkpt>
      <trkpt lat="45.55103" lon="6.66616">
        <ele>723.79998779297</ele>
        <time>2013-11-01T15:31:02.000Z</time>
      </trkpt>
      <trkpt lat="45.55101" lon="6.66622">
        <ele>724.79998779297</ele>
        <time>2013-11-01T15:31:05.000Z</time>
      </trkpt>
      <trkpt lat="45.55099" lon="6.66628">
        <ele>725.59997558594</ele>
        <time>2013-11-01T15:31:08.000Z</time>
      </trkpt>
      <trkpt lat="45.55097" lon="6.66633">
        <ele>726.20001220703</ele>
        <time>2013-11-01T15:31:11.000Z</time>
      </trkpt>
      <trkpt lat="45.55095" lon="6.66638">
        <ele>727</ele>
        <time>2013-11-01T15:31:14.000Z</time>
      </trkpt>
      <trkpt lat="45.55093" lon="6.66644">
        <ele>727.59997558594</ele>
        <time>2013-11-01T15:31:17.000Z</time>
      </trkpt>
      <trkpt lat="45.55093" lon="6.6665">
        <ele>728.40002441406</ele>
        <time>2013-11-01T15:31:20.000Z</time>
      </trkpt>
      <trkpt lat="45.55094" lon="6.66655">
        <ele>728.79998779297</ele>
        <time>2013-11-01T15:31:23.000Z</time>
      </trkpt>
      <trkpt lat="45.55098" lon="6.66658">
        <ele>728.79998779297</ele>
        <time>2013-11-01T15:31:26.000Z</time>
      </trkpt>
      <trkpt lat="45.55101" lon="6.66662">
        <ele>729</ele>
        <time>2013-11-01T15:31:29.000Z</time>
      </trkpt>
      <trkpt lat="45.55103" lon="6.66667">
        <ele>729.40002441406</ele>
        <time>2013-11-01T15:31:32.000Z</time>
      </trkpt>
      <trkpt lat="45.55106" lon="6.66671">
        <ele>729.59997558594</ele>
        <time>2013-11-01T15:31:35.000Z</time>
      </trkpt>
      <trkpt lat="45.5511" lon="6.66673">
        <ele>729.59997558594</ele>
        <time>2013-11-01T15:31:38.000Z</time>
      </trkpt>
      <trkpt lat="45.55113" lon="6.66675">
        <ele>729.40002441406</ele>
        <time>2013-11-01T15:31:41.000Z</time>
      </trkpt>
      <trkpt lat="45.55115" lon="6.66676">
        <ele>729.40002441406</ele>
        <time>2013-11-01T15:31:42.000Z</time>
      </trkpt>
      <trkpt lat="45.5512" lon="6.66678">
        <ele>729.20001220703</ele>
        <time>2013-11-01T15:31:46.000Z</time>
      </trkpt>
      <trkpt lat="45.55125" lon="6.66681">
        <ele>729.20001220703</ele>
        <time>2013-11-01T15:31:49.000Z</time>
      </trkpt>
      <trkpt lat="45.55129" lon="6.66685">
        <ele>729.20001220703</ele>
        <time>2013-11-01T15:31:52.000Z</time>
      </trkpt>
      <trkpt lat="45.55133" lon="6.66686">
        <ele>729</ele>
        <time>2013-11-01T15:31:55.000Z</time>
      </trkpt>
      <trkpt lat="45.55138" lon="6.66689">
        <ele>728.79998779297</ele>
        <time>2013-11-01T15:31:58.000Z</time>
      </trkpt>
      <trkpt lat="45.55142" lon="6.66692">
        <ele>728.79998779297</ele>
        <time>2013-11-01T15:32:01.000Z</time>
      </trkpt>
      <trkpt lat="45.55147" lon="6.66692">
        <ele>728.40002441406</ele>
        <time>2013-11-01T15:32:04.000Z</time>
      </trkpt>
      <trkpt lat="45.5515" lon="6.66689">
        <ele>727.79998779297</ele>
        <time>2013-11-01T15:32:07.000Z</time>
      </trkpt>
      <trkpt lat="45.55152" lon="6.66683">
        <ele>726.79998779297</ele>
        <time>2013-11-01T15:32:10.000Z</time>
      </trkpt>
      <trkpt lat="45.55154" lon="6.66678">
        <ele>726.20001220703</ele>
        <time>2013-11-01T15:32:13.000Z</time>
      </trkpt>
      <trkpt lat="45.55157" lon="6.66671">
        <ele>725.40002441406</ele>
        <time>2013-11-01T15:32:16.000Z</time>
      </trkpt>
      <trkpt lat="45.55159" lon="6.66665">
        <ele>724.40002441406</ele>
        <time>2013-11-01T15:32:19.000Z</time>
      </trkpt>
      <trkpt lat="45.55162" lon="6.66659">
        <ele>723.59997558594</ele>
        <time>2013-11-01T15:32:22.000Z</time>
      </trkpt>
      <trkpt lat="45.55164" lon="6.66657">
        <ele>723.20001220703</ele>
        <time>2013-11-01T15:32:24.000Z</time>
      </trkpt>
      <trkpt lat="45.5517" lon="6.66658">
        <ele>722.79998779297</ele>
        <time>2013-11-01T15:32:28.000Z</time>
      </trkpt>
      <trkpt lat="45.55172" lon="6.66659">
        <ele>722.79998779297</ele>
        <time>2013-11-01T15:32:29.000Z</time>
      </trkpt>
      <trkpt lat="45.55176" lon="6.66663">
        <ele>722.79998779297</ele>
        <time>2013-11-01T15:32:32.000Z</time>
      </trkpt>
      <trkpt lat="45.55177" lon="6.66664">
        <ele>722.79998779297</ele>
        <time>2013-11-01T15:32:33.000Z</time>
      </trkpt>
      <trkpt lat="45.5518" lon="6.66668">
        <ele>723</ele>
        <time>2013-11-01T15:32:36.000Z</time>
      </trkpt>
      <trkpt lat="45.55183" lon="6.66672">
        <ele>723.20001220703</ele>
        <time>2013-11-01T15:32:39.000Z</time>
      </trkpt>
      <trkpt lat="45.55185" lon="6.66677">
        <ele>723.40002441406</ele>
        <time>2013-11-01T15:32:42.000Z</time>
      </trkpt>
      <trkpt lat="45.55184" lon="6.66683">
        <ele>724.20001220703</ele>
        <time>2013-11-01T15:32:45.000Z</time>
      </trkpt>
      <trkpt lat="45.55182" lon="6.66689">
        <ele>725</ele>
        <time>2013-11-01T15:32:48.000Z</time>
      </trkpt>
      <trkpt lat="45.55179" lon="6.66695">
        <ele>725.59997558594</ele>
        <time>2013-11-01T15:32:51.000Z</time>
      </trkpt>
      <trkpt lat="45.55177" lon="6.667">
        <ele>726.40002441406</ele>
        <time>2013-11-01T15:32:54.000Z</time>
      </trkpt>
      <trkpt lat="45.55175" lon="6.66705">
        <ele>727</ele>
        <time>2013-11-01T15:32:57.000Z</time>
      </trkpt>
      <trkpt lat="45.55172" lon="6.66711">
        <ele>727.79998779297</ele>
        <time>2013-11-01T15:33:00.000Z</time>
      </trkpt>
      <trkpt lat="45.55169" lon="6.66716">
        <ele>728.59997558594</ele>
        <time>2013-11-01T15:33:03.000Z</time>
      </trkpt>
      <trkpt lat="45.55167" lon="6.66719">
        <ele>729</ele>
        <time>2013-11-01T15:33:06.000Z</time>
      </trkpt>
      <trkpt lat="45.55164" lon="6.66725">
        <ele>729.79998779297</ele>
        <time>2013-11-01T15:33:10.000Z</time>
      </trkpt>
      <trkpt lat="45.5516" lon="6.66726">
        <ele>730.40002441406</ele>
        <time>2013-11-01T15:33:14.000Z</time>
      </trkpt>
      <trkpt lat="45.55155" lon="6.66724">
        <ele>730.79998779297</ele>
        <time>2013-11-01T15:33:17.000Z</time>
      </trkpt>
      <trkpt lat="45.55149" lon="6.66722">
        <ele>731.20001220703</ele>
        <time>2013-11-01T15:33:20.000Z</time>
      </trkpt>
      <trkpt lat="45.55145" lon="6.66719">
        <ele>731.40002441406</ele>
        <time>2013-11-01T15:33:23.000Z</time>
      </trkpt>
      <trkpt lat="45.5514" lon="6.66715">
        <ele>731.40002441406</ele>
        <time>2013-11-01T15:33:26.000Z</time>
      </trkpt>
      <trkpt lat="45.55135" lon="6.66713">
        <ele>731.59997558594</ele>
        <time>2013-11-01T15:33:29.000Z</time>
      </trkpt>
      <trkpt lat="45.55131" lon="6.6671">
        <ele>731.79998779297</ele>
        <time>2013-11-01T15:33:32.000Z</time>
      </trkpt>
      <trkpt lat="45.55126" lon="6.66707">
        <ele>732</ele>
        <time>2013-11-01T15:33:35.000Z</time>
      </trkpt>
      <trkpt lat="45.55122" lon="6.66704">
        <ele>732.20001220703</ele>
        <time>2013-11-01T15:33:38.000Z</time>
      </trkpt>
      <trkpt lat="45.55117" lon="6.66703">
        <ele>732.40002441406</ele>
        <time>2013-11-01T15:33:40.000Z</time>
      </trkpt>
      <trkpt lat="45.55113" lon="6.66702">
        <ele>732.79998779297</ele>
        <time>2013-11-01T15:33:43.000Z</time>
      </trkpt>
      <trkpt lat="45.55108" lon="6.66703">
        <ele>733.40002441406</ele>
        <time>2013-11-01T15:33:46.000Z</time>
      </trkpt>
      <trkpt lat="45.55105" lon="6.66707">
        <ele>734.20001220703</ele>
        <time>2013-11-01T15:33:49.000Z</time>
      </trkpt>
      <trkpt lat="45.55103" lon="6.66713">
        <ele>735</ele>
        <time>2013-11-01T15:33:52.000Z</time>
      </trkpt>
      <trkpt lat="45.55101" lon="6.66719">
        <ele>736</ele>
        <time>2013-11-01T15:33:55.000Z</time>
      </trkpt>
      <trkpt lat="45.551" lon="6.66725">
        <ele>736.79998779297</ele>
        <time>2013-11-01T15:33:58.000Z</time>
      </trkpt>
      <trkpt lat="45.55098" lon="6.66731">
        <ele>737.79998779297</ele>
        <time>2013-11-01T15:34:01.000Z</time>
      </trkpt>
      <trkpt lat="45.55098" lon="6.66737">
        <ele>738.59997558594</ele>
        <time>2013-11-01T15:34:04.000Z</time>
      </trkpt>
      <trkpt lat="45.55098" lon="6.66739">
        <ele>738.79998779297</ele>
        <time>2013-11-01T15:34:05.000Z</time>
      </trkpt>
      <trkpt lat="45.55102" lon="6.66739">
        <ele>738.59997558594</ele>
        <time>2013-11-01T15:34:08.000Z</time>
      </trkpt>
      <trkpt lat="45.55104" lon="6.66736">
        <ele>737.79998779297</ele>
        <time>2013-11-01T15:34:11.000Z</time>
      </trkpt>
      <trkpt lat="45.5517" lon="6.66636">
        <ele>720.40002441406</ele>
        <time>2013-11-01T15:36:51.000Z</time>
      </trkpt>
      <trkpt lat="45.5517" lon="6.66635">
        <ele>720.40002441406</ele>
        <time>2013-11-01T15:36:52.000Z</time>
      </trkpt>
      <trkpt lat="45.55168" lon="6.66628">
        <ele>719.79998779297</ele>
        <time>2013-11-01T15:36:56.000Z</time>
      </trkpt>
      <trkpt lat="45.55166" lon="6.66622">
        <ele>719.20001220703</ele>
        <time>2013-11-01T15:36:59.000Z</time>
      </trkpt>
      <trkpt lat="45.55165" lon="6.66616">
        <ele>718.79998779297</ele>
        <time>2013-11-01T15:37:02.000Z</time>
      </trkpt>
      <trkpt lat="45.55162" lon="6.66611">
        <ele>718.40002441406</ele>
        <time>2013-11-01T15:37:05.000Z</time>
      </trkpt>
      <trkpt lat="45.55161" lon="6.66607">
        <ele>718</ele>
        <time>2013-11-01T15:37:08.000Z</time>
      </trkpt>
      <trkpt lat="45.55161" lon="6.66607">
        <ele>718</ele>
        <time>2013-11-01T15:37:10.000Z</time>
      </trkpt>
      <trkpt lat="45.55158" lon="6.666">
        <ele>717.40002441406</ele>
        <time>2013-11-01T15:37:14.000Z</time>
      </trkpt>
      <trkpt lat="45.55156" lon="6.66593">
        <ele>717</ele>
        <time>2013-11-01T15:37:17.000Z</time>
      </trkpt>
      <trkpt lat="45.55155" lon="6.66587">
        <ele>716.40002441406</ele>
        <time>2013-11-01T15:37:20.000Z</time>
      </trkpt>
      <trkpt lat="45.55155" lon="6.6658">
        <ele>715.79998779297</ele>
        <time>2013-11-01T15:37:23.000Z</time>
      </trkpt>
      <trkpt lat="45.55154" lon="6.66578">
        <ele>715.59997558594</ele>
        <time>2013-11-01T15:37:24.000Z</time>
      </trkpt>
      <trkpt lat="45.55154" lon="6.66573">
        <ele>715.40002441406</ele>
        <time>2013-11-01T15:37:26.000Z</time>
      </trkpt>
      <trkpt lat="45.55154" lon="6.66567">
        <ele>714.79998779297</ele>
        <time>2013-11-01T15:37:29.000Z</time>
      </trkpt>
      <trkpt lat="45.55153" lon="6.6656">
        <ele>714.40002441406</ele>
        <time>2013-11-01T15:37:32.000Z</time>
      </trkpt>
      <trkpt lat="45.55153" lon="6.66553">
        <ele>714</ele>
        <time>2013-11-01T15:37:35.000Z</time>
      </trkpt>
      <trkpt lat="45.55153" lon="6.66546">
        <ele>713.40002441406</ele>
        <time>2013-11-01T15:37:38.000Z</time>
      </trkpt>
      <trkpt lat="45.55152" lon="6.66539">
        <ele>713</ele>
        <time>2013-11-01T15:37:41.000Z</time>
      </trkpt>
      <trkpt lat="45.55151" lon="6.66533">
        <ele>712.59997558594</ele>
        <time>2013-11-01T15:37:44.000Z</time>
      </trkpt>
      <trkpt lat="45.5515" lon="6.66526">
        <ele>712</ele>
        <time>2013-11-01T15:37:47.000Z</time>
      </trkpt>
      <trkpt lat="45.55149" lon="6.66519">
        <ele>711.59997558594</ele>
        <time>2013-11-01T15:37:50.000Z</time>
      </trkpt>
      <trkpt lat="45.55148" lon="6.66513">
        <ele>711.20001220703</ele>
        <time>2013-11-01T15:37:53.000Z</time>
      </trkpt>
      <trkpt lat="45.55146" lon="6.66507">
        <ele>711</ele>
        <time>2013-11-01T15:37:56.000Z</time>
      </trkpt>
      <trkpt lat="45.55142" lon="6.66503">
        <ele>711</ele>
        <time>2013-11-01T15:37:59.000Z</time>
      </trkpt>
      <trkpt lat="45.55139" lon="6.66498">
        <ele>710.79998779297</ele>
        <time>2013-11-01T15:38:02.000Z</time>
      </trkpt>
      <trkpt lat="45.55137" lon="6.66493">
        <ele>710.79998779297</ele>
        <time>2013-11-01T15:38:05.000Z</time>
      </trkpt>
      <trkpt lat="45.55135" lon="6.66488">
        <ele>710.79998779297</ele>
        <time>2013-11-01T15:38:07.000Z</time>
      </trkpt>
      <trkpt lat="45.55131" lon="6.66484">
        <ele>710.79998779297</ele>
        <time>2013-11-01T15:38:11.000Z</time>
      </trkpt>
      <trkpt lat="45.5513" lon="6.66484">
        <ele>711</ele>
        <time>2013-11-01T15:38:12.000Z</time>
      </trkpt>
      <trkpt lat="45.55126" lon="6.66484">
        <ele>711.20001220703</ele>
        <time>2013-11-01T15:38:15.000Z</time>
      </trkpt>
      <trkpt lat="45.55121" lon="6.66485">
        <ele>711.59997558594</ele>
        <time>2013-11-01T15:38:18.000Z</time>
      </trkpt>
      <trkpt lat="45.55116" lon="6.66486">
        <ele>712.20001220703</ele>
        <time>2013-11-01T15:38:21.000Z</time>
      </trkpt>
      <trkpt lat="45.55112" lon="6.66488">
        <ele>712.59997558594</ele>
        <time>2013-11-01T15:38:24.000Z</time>
      </trkpt>
      <trkpt lat="45.55107" lon="6.66488">
        <ele>712.79998779297</ele>
        <time>2013-11-01T15:38:27.000Z</time>
      </trkpt>
      <trkpt lat="45.55103" lon="6.66489">
        <ele>713.20001220703</ele>
        <time>2013-11-01T15:38:30.000Z</time>
      </trkpt>
      <trkpt lat="45.55099" lon="6.66489">
        <ele>713.59997558594</ele>
        <time>2013-11-01T15:38:33.000Z</time>
      </trkpt>
      <trkpt lat="45.55095" lon="6.66487">
        <ele>713.79998779297</ele>
        <time>2013-11-01T15:38:36.000Z</time>
      </trkpt>
      <trkpt lat="45.55093" lon="6.66487">
        <ele>714</ele>
        <time>2013-11-01T15:38:37.000Z</time>
      </trkpt>
      <trkpt lat="45.55087" lon="6.6649">
        <ele>714.40002441406</ele>
        <time>2013-11-01T15:38:41.000Z</time>
      </trkpt>
      <trkpt lat="45.55084" lon="6.66494">
        <ele>714.79998779297</ele>
        <time>2013-11-01T15:38:44.000Z</time>
      </trkpt>
      <trkpt lat="45.55083" lon="6.66495">
        <ele>714.79998779297</ele>
        <time>2013-11-01T15:38:45.000Z</time>
      </trkpt>
      <trkpt lat="45.55083" lon="6.665">
        <ele>715</ele>
        <time>2013-11-01T15:38:48.000Z</time>
      </trkpt>
      <trkpt lat="45.55086" lon="6.66505">
        <ele>715.20001220703</ele>
        <time>2013-11-01T15:38:51.000Z</time>
      </trkpt>
      <trkpt lat="45.55089" lon="6.66509">
        <ele>715.40002441406</ele>
        <time>2013-11-01T15:38:54.000Z</time>
      </trkpt>
      <trkpt lat="45.55093" lon="6.66511">
        <ele>715.20001220703</ele>
        <time>2013-11-01T15:38:57.000Z</time>
      </trkpt>
      <trkpt lat="45.55094" lon="6.66512">
        <ele>715.20001220703</ele>
        <time>2013-11-01T15:38:58.000Z</time>
      </trkpt>
      <trkpt lat="45.55098" lon="6.6651">
        <ele>714.79998779297</ele>
        <time>2013-11-01T15:39:01.000Z</time>
      </trkpt>
      <trkpt lat="45.55102" lon="6.66507">
        <ele>714.20001220703</ele>
        <time>2013-11-01T15:39:04.000Z</time>
      </trkpt>
      <trkpt lat="45.55106" lon="6.66505">
        <ele>713.79998779297</ele>
        <time>2013-11-01T15:39:07.000Z</time>
      </trkpt>
      <trkpt lat="45.55109" lon="6.66502">
        <ele>713.40002441406</ele>
        <time>2013-11-01T15:39:10.000Z</time>
      </trkpt>
      <trkpt lat="45.5511" lon="6.66502">
        <ele>713.20001220703</ele>
        <time>2013-11-01T15:39:11.000Z</time>
      </trkpt>
      <trkpt lat="45.55114" lon="6.665">
        <ele>712.79998779297</ele>
        <time>2013-11-01T15:39:14.000Z</time>
      </trkpt>
      <trkpt lat="45.55119" lon="6.66499">
        <ele>712.40002441406</ele>
        <time>2013-11-01T15:39:17.000Z</time>
      </trkpt>
      <trkpt lat="45.55124" lon="6.66496">
        <ele>711.79998779297</ele>
        <time>2013-11-01T15:39:20.000Z</time>
      </trkpt>
      <trkpt lat="45.55129" lon="6.66495">
        <ele>711.59997558594</ele>
        <time>2013-11-01T15:39:23.000Z</time>
      </trkpt>
      <trkpt lat="45.55133" lon="6.66495">
        <ele>711.20001220703</ele>
        <time>2013-11-01T15:39:26.000Z</time>
      </trkpt>
      <trkpt lat="45.55134" lon="6.66496">
        <ele>711.20001220703</ele>
        <time>2013-11-01T15:39:27.000Z</time>
      </trkpt>
      <trkpt lat="45.55139" lon="6.66502">
        <ele>711.20001220703</ele>
        <time>2013-11-01T15:39:31.000Z</time>
      </trkpt>
      <trkpt lat="45.55142" lon="6.66507">
        <ele>711.40002441406</ele>
        <time>2013-11-01T15:39:34.000Z</time>
      </trkpt>
      <trkpt lat="45.55145" lon="6.66512">
        <ele>711.40002441406</ele>
        <time>2013-11-01T15:39:37.000Z</time>
      </trkpt>
      <trkpt lat="45.55148" lon="6.66518">
        <ele>711.79998779297</ele>
        <time>2013-11-01T15:39:40.000Z</time>
      </trkpt>
      <trkpt lat="45.55149" lon="6.66524">
        <ele>712</ele>
        <time>2013-11-01T15:39:43.000Z</time>
      </trkpt>
      <trkpt lat="45.55149" lon="6.6653">
        <ele>712.40002441406</ele>
        <time>2013-11-01T15:39:46.000Z</time>
      </trkpt>
      <trkpt lat="45.55149" lon="6.66536">
        <ele>713</ele>
        <time>2013-11-01T15:39:49.000Z</time>
      </trkpt>
      <trkpt lat="45.5515" lon="6.66542">
        <ele>713.40002441406</ele>
        <time>2013-11-01T15:39:52.000Z</time>
      </trkpt>
      <trkpt lat="45.55151" lon="6.66548">
        <ele>713.59997558594</ele>
        <time>2013-11-01T15:39:55.000Z</time>
      </trkpt>
      <trkpt lat="45.55151" lon="6.66554">
        <ele>714.20001220703</ele>
        <time>2013-11-01T15:39:58.000Z</time>
      </trkpt>
      <trkpt lat="45.55151" lon="6.6656">
        <ele>714.59997558594</ele>
        <time>2013-11-01T15:40:01.000Z</time>
      </trkpt>
      <trkpt lat="45.55151" lon="6.66566">
        <ele>715</ele>
        <time>2013-11-01T15:40:04.000Z</time>
      </trkpt>
      <trkpt lat="45.55151" lon="6.66568">
        <ele>715.20001220703</ele>
        <time>2013-11-01T15:40:05.000Z</time>
      </trkpt>
      <trkpt lat="45.5515" lon="6.6657">
        <ele>715.40002441406</ele>
        <time>2013-11-01T15:40:14.000Z</time>
      </trkpt>
      <trkpt lat="45.5515" lon="6.66572">
        <ele>715.59997558594</ele>
        <time>2013-11-01T15:40:17.000Z</time>
      </trkpt>
      <trkpt lat="45.55151" lon="6.66578">
        <ele>716</ele>
        <time>2013-11-01T15:40:20.000Z</time>
      </trkpt>
      <trkpt lat="45.55153" lon="6.66584">
        <ele>716.20001220703</ele>
        <time>2013-11-01T15:40:23.000Z</time>
      </trkpt>
      <trkpt lat="45.55154" lon="6.6659">
        <ele>716.79998779297</ele>
        <time>2013-11-01T15:40:26.000Z</time>
      </trkpt>
      <trkpt lat="45.55155" lon="6.66596">
        <ele>717.20001220703</ele>
        <time>2013-11-01T15:40:29.000Z</time>
      </trkpt>
      <trkpt lat="45.55157" lon="6.66601">
        <ele>717.59997558594</ele>
        <time>2013-11-01T15:40:32.000Z</time>
      </trkpt>
      <trkpt lat="45.55159" lon="6.66606">
        <ele>718</ele>
        <time>2013-11-01T15:40:35.000Z</time>
      </trkpt>
      <trkpt lat="45.55161" lon="6.6661">
        <ele>718.40002441406</ele>
        <time>2013-11-01T15:40:38.000Z</time>
      </trkpt>
      <trkpt lat="45.55163" lon="6.66615">
        <ele>718.79998779297</ele>
        <time>2013-11-01T15:40:41.000Z</time>
      </trkpt>
      <trkpt lat="45.55164" lon="6.6662">
        <ele>719.20001220703</ele>
        <time>2013-11-01T15:40:44.000Z</time>
      </trkpt>
      <trkpt lat="45.55165" lon="6.66625">
        <ele>719.59997558594</ele>
        <time>2013-11-01T15:40:47.000Z</time>
      </trkpt>
      <trkpt lat="45.55165" lon="6.66631">
        <ele>720.20001220703</ele>
        <time>2013-11-01T15:40:50.000Z</time>
      </trkpt>
      <trkpt lat="45.55165" lon="6.66633">
        <ele>720.40002441406</ele>
        <time>2013-11-01T15:40:51.000Z</time>
      </trkpt>
    </trkseg>
  </trk>
</gpx>